This is the latest recevied weather packets stored in our database for station/object ENBN. If no packets are shown the sender has not sent any weather packets the latest 10 day(s).
| Time | Temp. | Humidity | Pressure | Rain* | Wind** | Luminosity | Snow |
|---|---|---|---|---|---|---|---|
| 1777433587 | 5.56° C | 93% | 1024 hPa | - | - | - | - |
| 1777431787 | 5.56° C | 93% | 1024 hPa | - | - | - | - |
| 1777429986 | 5.56° C | 86% | 1024 hPa | - | - | - | - |
| 1777428188 | 5.56° C | 86% | 1025 hPa | - | - | - | - |
| 1777424586 | 5.56° C | 81% | 1025 hPa | - | - | - | - |
| 1777422787 | 5° C | 80% | 1026 hPa | - | - | - | - |
| 1777420987 | 5° C | 80% | 1026 hPa | - | - | - | - |
| 1777419187 | 5° C | 86% | 1027 hPa | - | - | - | - |
| 1777417386 | 5.56° C | 70% | 1027 hPa | - | - | - | - |
| 1777415588 | 6.67° C | 60% | 1027 hPa | - | - | - | - |
| 1777413787 | 6.67° C | 56% | 1027 hPa | - | - | - | - |
| 1777411988 | 6.67° C | 60% | 1027 hPa | - | - | - | - |
| 1777410209 | 5.56° C | 65% | 1027 hPa | - | - | - | - |
| 1777408388 | 5.56° C | 70% | 1027 hPa | - | - | - | - |
| 1777406589 | 5.56° C | 65% | 1028 hPa | - | - | - | - |
| 1777404790 | 5.56° C | 65% | 1028 hPa | - | - | - | - |
| 1777403008 | 5.56° C | 65% | 1028 hPa | - | - | - | - |
| 1777401189 | 5.56° C | 65% | 1028 hPa | - | - | - | - |
| 1777399393 | 5.56° C | 60% | 1028 hPa | - | - | - | - |
| 1777397592 | 5.56° C | 60% | 1029 hPa | - | - | - | - |
| 1777395788 | 5.56° C | 60% | 1029 hPa | - | - | - | - |
| 1777393990 | 5.56° C | 60% | 1029 hPa | - | - | - | - |
| 1777392191 | 5.56° C | 60% | 1029 hPa | - | - | - | - |
| 1777388588 | 7.78° C | 52% | 1029 hPa | - | - | - | - |
| 1777386788 | 8.89° C | 53% | 1029 hPa | - | - | - | - |
* Rain since midnight (hover to see other rain measurements)
** Current wind speed in m/s (hover to see current wind gust speed)